Time;durP1;ratioP1;P1;durP2;ratioP2;P2;SDS_P1;SDS_P2;PMS_P1;PMS_P2;Temp;Humidity;BMP_temperature;BMP_pressure;BME280_temperature;BME280_humidity;BME280_pressure;Samples;Min_cycle;Max_cycle;Signal;HPM_P1;HPM_P2
2021/10/07 00:00:17;;;;;;;3.92;2.88;;;;;;;12.10;100.00;97051.09;5013245;28;20096;-58
2021/10/07 00:02:47;;;;;;;3.00;2.70;;;;;;;12.38;100.00;97057.34;5006972;28;20068;-56
2021/10/07 00:05:16;;;;;;;4.28;2.88;;;;;;;11.96;100.00;97067.38;5006608;28;20065;-54
2021/10/07 00:07:44;;;;;;;3.85;2.55;;;;;;;12.12;100.00;97057.09;5011450;28;20464;-56
2021/10/07 00:10:13;;;;;;;2.97;2.60;;;;;;;12.33;100.00;97056.94;4987234;28;20532;-53
2021/10/07 00:12:41;;;;;;;3.22;2.90;;;;;;;12.43;100.00;97057.78;5002306;28;20069;-55
2021/10/07 00:15:13;;;;;;;3.70;2.85;;;;;;;12.92;100.00;97060.31;5008311;28;20072;-52
2021/10/07 00:17:42;;;;;;;2.85;2.50;;;;;;;12.98;100.00;97060.56;5014003;28;20068;-54
2021/10/07 00:20:14;;;;;;;3.85;2.80;;;;;;;13.21;100.00;97054.88;5006627;28;20062;-55
2021/10/07 00:22:43;;;;;;;2.88;2.58;;;;;;;12.95;100.00;97057.38;5008820;28;20475;-53
2021/10/07 00:25:13;;;;;;;3.85;2.65;;;;;;;13.07;100.00;97061.50;5002608;28;20470;-51
2021/10/07 00:27:41;;;;;;;3.53;2.72;;;;;;;13.32;100.00;97054.75;5014389;28;20069;-55
2021/10/07 00:30:15;;;;;;;3.03;2.58;;;;;;;13.41;100.00;97061.78;5014304;28;20084;-52
2021/10/07 00:32:50;;;;;;;4.47;2.50;;;;;;;13.26;100.00;97057.97;5005157;28;20476;-53
2021/10/07 00:41:01;;;;;;;4.88;2.85;;;;;;;13.20;100.00;97056.69;5007603;28;20096;-47
2021/10/07 00:43:30;;;;;;;3.58;2.78;;;;;;;12.63;100.00;97068.31;5005528;28;20073;-56
2021/10/07 00:46:01;;;;;;;5.50;2.60;;;;;;;12.97;100.00;97061.56;4990859;28;20478;-53
2021/10/07 00:48:29;;;;;;;3.85;2.40;;;;;;;12.71;100.00;97066.63;4999710;28;20062;-47
2021/10/07 00:50:58;;;;;;;4.25;2.70;;;;;;;12.32;100.00;97056.13;4991727;28;20088;-55
2021/10/07 00:53:28;;;;;;;3.40;2.50;;;;;;;12.22;100.00;97062.38;4993488;28;20073;-54
2021/10/07 00:55:58;;;;;;;2.80;2.60;;;;;;;12.45;100.00;97057.63;4989599;28;20073;-55
2021/10/07 00:58:26;;;;;;;3.45;2.88;;;;;;;12.54;100.00;97062.91;4997707;28;20501;-57
2021/10/07 01:00:55;;;;;;;4.72;3.33;;;;;;;12.45;100.00;97052.31;4993278;28;20511;-49
2021/10/07 01:03:23;;;;;;;4.40;2.60;;;;;;;12.70;100.00;97049.09;4990556;28;20080;-52
2021/10/07 01:05:52;;;;;;;4.90;2.70;;;;;;;13.01;100.00;97054.16;4993130;28;20077;-53
2021/10/07 01:08:20;;;;;;;3.70;3.10;;;;;;;13.04;100.00;97051.19;4997405;28;20420;-53
2021/10/07 01:10:50;;;;;;;5.30;2.95;;;;;;;12.25;100.00;97052.38;4992672;28;20117;-49
2021/10/07 01:13:18;;;;;;;3.40;2.97;;;;;;;12.27;100.00;97060.16;4997289;28;20108;-54
2021/10/07 01:15:47;;;;;;;3.28;2.85;;;;;;;12.30;100.00;97058.06;4994120;28;20076;-49
2021/10/07 01:18:15;;;;;;;4.10;2.80;;;;;;;11.89;100.00;97061.81;4997632;28;20069;-50
2021/10/07 01:20:45;;;;;;;4.57;2.97;;;;;;;11.70;100.00;97064.38;4996311;28;20070;-54
2021/10/07 01:23:14;;;;;;;3.13;2.83;;;;;;;11.71;100.00;97071.38;4985961;28;20058;-59
2021/10/07 01:25:43;;;;;;;3.13;2.70;;;;;;;11.56;100.00;97082.31;4989698;28;20043;-54
2021/10/07 01:28:12;;;;;;;3.60;2.92;;;;;;;12.02;100.00;97077.41;4997242;28;20094;-50
2021/10/07 01:30:40;;;;;;;3.13;2.83;;;;;;;12.28;100.00;97075.84;4997979;28;20065;-53
2021/10/07 01:33:09;;;;;;;3.45;2.92;;;;;;;12.71;100.00;97065.78;4994396;28;20081;-52
2021/10/07 01:35:37;;;;;;;4.15;3.05;;;;;;;12.58;100.00;97063.44;4993437;28;20070;-53
2021/10/07 01:38:07;;;;;;;4.20;2.90;;;;;;;12.68;100.00;97056.31;4993190;28;20065;-54
2021/10/07 01:40:36;;;;;;;5.00;2.90;;;;;;;12.61;100.00;97063.16;4994472;28;20100;-55
2021/10/07 01:43:04;;;;;;;3.75;2.60;;;;;;;12.83;100.00;97060.19;4994009;28;20543;-55
2021/10/07 01:45:33;;;;;;;7.32;2.90;;;;;;;12.83;100.00;97056.69;4993111;28;20062;-48
2021/10/07 01:48:01;;;;;;;4.55;2.70;;;;;;;12.47;100.00;97058.31;4984968;28;20078;-52
2021/10/07 01:50:30;;;;;;;4.20;2.80;;;;;;;13.04;100.00;97060.00;4981949;28;20078;-55
2021/10/07 01:52:58;;;;;;;4.65;2.45;;;;;;;12.91;100.00;97054.19;4983494;28;20109;-55
2021/10/07 01:55:28;;;;;;;3.00;2.70;;;;;;;12.94;100.00;97053.03;4982610;28;20639;-52
2021/10/07 01:57:56;;;;;;;2.88;2.67;;;;;;;12.45;100.00;97057.63;4977082;28;20523;-49
2021/10/07 02:00:26;;;;;;;3.85;2.72;;;;;;;12.41;100.00;97061.53;4978669;28;20069;-49
2021/10/07 02:02:54;;;;;;;3.40;3.05;;;;;;;12.46;100.00;97062.78;4979094;28;20074;-47
2021/10/07 02:05:23;;;;;;;5.20;2.83;;;;;;;12.35;100.00;97060.25;4983217;28;20070;-47
2021/10/07 02:07:51;;;;;;;4.60;3.00;;;;;;;12.87;100.00;97063.38;4980860;28;20094;-50
2021/10/07 02:10:20;;;;;;;3.13;2.60;;;;;;;12.56;100.00;97066.25;4981859;28;21072;-49
2021/10/07 02:12:50;;;;;;;3.15;2.78;;;;;;;12.58;100.00;97066.09;4980424;28;20070;-55
2021/10/07 02:15:19;;;;;;;3.08;2.78;;;;;;;13.10;100.00;97068.31;4996404;28;20038;-51
2021/10/07 02:17:48;;;;;;;3.30;3.00;;;;;;;13.13;100.00;97065.38;5000213;28;20125;-55
2021/10/07 02:20:16;;;;;;;3.22;2.67;;;;;;;13.12;100.00;97064.56;5001510;28;20074;-53
2021/10/07 02:22:45;;;;;;;5.00;2.90;;;;;;;13.40;100.00;97062.78;5001124;28;20077;-54
2021/10/07 02:25:14;;;;;;;2.95;2.65;;;;;;;13.45;100.00;97071.09;5009029;28;20078;-52
2021/10/07 02:27:42;;;;;;;3.97;3.08;;;;;;;13.39;100.00;97065.59;5004311;28;20065;-51
2021/10/07 02:30:16;;;;;;;3.88;2.78;;;;;;;13.15;100.00;97072.22;5001597;28;20077;-48
2021/10/07 02:32:45;;;;;;;3.05;2.72;;;;;;;13.40;100.00;97070.72;5004642;28;20057;-50
2021/10/07 02:35:14;;;;;;;3.17;2.70;;;;;;;13.59;100.00;97071.59;5004404;28;20699;-49
2021/10/07 02:37:42;;;;;;;3.35;2.55;;;;;;;13.20;100.00;97077.88;5005157;28;20073;-53
2021/10/07 02:40:12;;;;;;;3.85;2.72;;;;;;;13.37;100.00;97072.84;4999251;28;23655;-47
2021/10/07 02:42:41;;;;;;;3.43;2.80;;;;;;;13.77;100.00;97078.59;5005533;28;20452;-48
2021/10/07 02:45:13;;;;;;;2.90;2.60;;;;;;;13.76;100.00;97078.75;4997050;28;20797;-50
2021/10/07 02:47:42;;;;;;;3.00;2.70;;;;;;;14.06;100.00;97082.88;5001380;28;24221;-50
2021/10/07 02:50:11;;;;;;;4.30;2.75;;;;;;;14.16;100.00;97074.84;5004760;28;20072;-54
2021/10/07 02:52:40;;;;;;;2.95;2.65;;;;;;;14.43;100.00;97074.75;5001532;28;20084;-46
2021/10/07 02:55:09;;;;;;;3.45;2.60;;;;;;;14.25;100.00;97087.22;4996691;28;20454;-53
2021/10/07 02:57:37;;;;;;;3.53;2.88;;;;;;;13.86;100.00;97087.47;5006274;28;20145;-57
2021/10/07 03:00:07;;;;;;;3.78;2.78;;;;;;;13.93;100.00;97096.50;5003696;28;21103;-51
2021/10/07 03:02:37;;;;;;;3.80;2.80;;;;;;;14.28;100.00;97091.34;4998429;28;20072;-47
2021/10/07 03:05:07;;;;;;;3.38;2.67;;;;;;;13.99;100.00;97093.25;5004279;28;20069;-53
2021/10/07 03:07:35;;;;;;;5.07;3.10;;;;;;;14.16;100.00;97088.09;5002799;28;20078;-55
2021/10/07 03:10:04;;;;;;;2.88;2.50;;;;;;;13.50;100.00;97090.06;5006688;28;20092;-52
2021/10/07 03:12:33;;;;;;;4.05;2.70;;;;;;;13.87;100.00;97086.50;5003643;28;20139;-47
2021/10/07 03:15:01;;;;;;;3.55;2.90;;;;;;;14.24;100.00;97093.47;5004168;28;20073;-52
2021/10/07 03:17:30;;;;;;;3.13;2.83;;;;;;;14.14;100.00;97095.38;5004817;28;20060;-49
2021/10/07 03:20:00;;;;;;;4.78;2.75;;;;;;;13.81;100.00;97094.22;4997251;28;20101;-49
2021/10/07 03:22:28;;;;;;;3.00;2.55;;;;;;;14.42;100.00;97099.63;5006111;28;20088;-53
2021/10/07 03:24:57;;;;;;;3.50;2.90;;;;;;;14.04;100.00;97100.78;5002746;28;20077;-52
2021/10/07 03:27:25;;;;;;;3.53;2.75;;;;;;;14.15;100.00;97100.53;4998998;28;20068;-50
2021/10/07 03:29:54;;;;;;;3.10;2.80;;;;;;;14.10;100.00;97094.00;5000298;28;20076;-51
2021/10/07 03:32:22;;;;;;;3.88;2.97;;;;;;;13.86;100.00;97086.63;4996958;28;20068;-56
2021/10/07 03:34:51;;;;;;;2.97;2.55;;;;;;;13.46;100.00;97098.47;5002103;28;20164;-51
2021/10/07 03:37:20;;;;;;;3.15;2.88;;;;;;;13.44;100.00;97097.75;5001235;28;20089;-52
2021/10/07 03:39:49;;;;;;;4.40;2.78;;;;;;;13.45;100.00;97102.06;5001093;28;20069;-52
2021/10/07 03:42:17;;;;;;;2.80;2.45;;;;;;;13.60;100.00;97103.25;5001912;28;20459;-51
2021/10/07 03:44:46;;;;;;;2.90;2.58;;;;;;;14.09;100.00;97102.97;4997221;28;20074;-52
2021/10/07 03:47:14;;;;;;;5.82;2.92;;;;;;;13.82;100.00;97099.34;5001151;28;20543;-51
2021/10/07 03:49:43;;;;;;;3.58;2.50;;;;;;;13.79;100.00;97097.00;5003351;28;20104;-57
2021/10/07 03:52:11;;;;;;;3.95;2.67;;;;;;;13.57;100.00;97111.50;4996130;28;20528;-54
2021/10/07 03:54:41;;;;;;;3.55;2.70;;;;;;;13.10;100.00;97108.88;4996578;28;20069;-51
2021/10/07 03:57:09;;;;;;;4.78;2.75;;;;;;;13.02;100.00;97109.59;5004273;28;20070;-51
2021/10/07 03:59:38;;;;;;;5.05;3.03;;;;;;;13.38;100.00;97109.75;5002272;28;20077;-52
2021/10/07 04:02:06;;;;;;;4.78;3.10;;;;;;;13.73;100.00;97116.19;5000599;28;20073;-57
2021/10/07 04:04:35;;;;;;;4.18;2.70;;;;;;;14.33;100.00;97119.09;5005761;28;20082;-48
2021/10/07 04:07:03;;;;;;;5.03;2.65;;;;;;;14.10;100.00;97110.75;5001916;28;20470;-52
2021/10/07 04:09:32;;;;;;;4.78;2.80;;;;;;;14.23;100.00;97116.53;4997954;28;20065;-55
2021/10/07 04:12:02;;;;;;;3.72;2.65;;;;;;;14.09;100.00;97109.09;5001146;28;20131;-49
2021/10/07 04:14:30;;;;;;;4.80;2.65;;;;;;;13.99;100.00;97121.59;5002481;28;20065;-54
2021/10/07 04:16:59;;;;;;;3.33;3.03;;;;;;;13.90;100.00;97125.97;5004058;28;20092;-52
2021/10/07 04:19:27;;;;;;;4.50;2.90;;;;;;;14.21;100.00;97121.16;5002897;28;20089;-52
2021/10/07 04:21:56;;;;;;;4.25;2.63;;;;;;;13.91;100.00;97118.84;5002414;28;20065;-54
2021/10/07 04:24:25;;;;;;;2.90;2.55;;;;;;;14.52;100.00;97119.94;5009065;28;20064;-54
2021/10/07 04:26:54;;;;;;;7.28;2.80;;;;;;;14.71;100.00;97123.28;5000527;28;20062;-57
2021/10/07 04:29:24;;;;;;;3.28;2.70;;;;;;;14.23;100.00;97129.78;5002383;28;20108;-53
2021/10/07 04:31:52;;;;;;;2.92;2.67;;;;;;;15.08;100.00;97124.03;5002540;28;20108;-53
2021/10/07 04:34:21;;;;;;;4.03;2.70;;;;;;;15.15;100.00;97123.25;5002681;28;20108;-49
2021/10/07 04:36:49;;;;;;;3.08;2.78;;;;;;;15.07;100.00;97115.25;5001806;28;20069;-47
2021/10/07 04:39:17;;;;;;;4.38;2.83;;;;;;;15.14;100.00;97118.94;4999510;28;20176;-52
2021/10/07 04:41:46;;;;;;;2.78;2.50;;;;;;;15.05;100.00;97116.38;5005709;28;20062;-52
2021/10/07 04:44:14;;;;;;;6.38;2.42;;;;;;;15.14;100.00;97120.75;5000272;28;20072;-47
2021/10/07 04:46:44;;;;;;;3.22;2.65;;;;;;;14.99;100.00;97117.00;5004801;28;20089;-54
2021/10/07 04:49:13;;;;;;;4.20;2.85;;;;;;;15.33;100.00;97119.69;5000952;28;20562;-49
2021/10/07 04:51:41;;;;;;;4.40;2.75;;;;;;;15.37;100.00;97119.22;5004446;28;20065;-51
2021/10/07 04:54:10;;;;;;;3.22;2.60;;;;;;;15.37;100.00;97124.53;5003809;28;20061;-50
2021/10/07 04:56:38;;;;;;;4.75;2.47;;;;;;;14.82;100.00;97129.31;4999651;28;20062;-55
2021/10/07 04:59:07;;;;;;;4.00;2.60;;;;;;;14.77;100.00;97129.81;5005491;28;20520;-55
2021/10/07 05:01:35;;;;;;;5.53;2.83;;;;;;;15.07;100.00;97127.66;5001012;28;20084;-58
2021/10/07 05:04:05;;;;;;;4.75;2.70;;;;;;;14.92;100.00;97130.91;4997303;28;20428;-55
2021/10/07 05:06:34;;;;;;;5.35;2.90;;;;;;;14.77;100.00;97131.63;5000399;28;20084;-57
2021/10/07 05:09:02;;;;;;;5.90;2.42;;;;;;;14.89;100.00;97123.22;5001111;28;20077;-53
2021/10/07 05:11:31;;;;;;;2.95;2.70;;;;;;;14.60;100.00;97128.00;4997672;28;20119;-50
2021/10/07 05:13:59;;;;;;;3.90;2.55;;;;;;;14.60;100.00;97131.50;5001466;28;20485;-53
2021/10/07 05:16:27;;;;;;;4.45;2.90;;;;;;;15.12;100.00;97136.03;5006982;28;20093;-57
2021/10/07 05:18:56;;;;;;;3.10;2.65;;;;;;;15.29;100.00;97135.13;5003036;28;20062;-52
2021/10/07 05:21:26;;;;;;;3.58;2.50;;;;;;;14.78;100.00;97136.78;4998747;28;20069;-54
2021/10/07 05:23:54;;;;;;;8.77;2.83;;;;;;;15.12;100.00;97131.53;5001195;28;20074;-55
2021/10/07 05:26:22;;;;;;;5.57;2.83;;;;;;;14.79;100.00;97130.47;5006963;28;20073;-58
2021/10/07 05:28:51;;;;;;;4.18;2.80;;;;;;;15.12;100.00;97131.53;5002264;28;20082;-47
2021/10/07 05:31:19;;;;;;;5.28;2.25;;;;;;;14.94;100.00;97136.91;5008539;28;20460;-55
2021/10/07 05:33:48;;;;;;;5.35;2.78;;;;;;;15.07;100.00;97140.94;5001429;28;20085;-52
2021/10/07 05:36:17;;;;;;;3.03;2.65;;;;;;;14.69;100.00;97140.34;5000020;28;20532;-56
2021/10/07 05:38:46;;;;;;;3.78;2.70;;;;;;;14.83;100.00;97133.63;5003024;28;20062;-51
2021/10/07 05:41:15;;;;;;;4.22;2.55;;;;;;;15.22;100.00;97141.22;5005334;28;20076;-47
2021/10/07 05:43:43;;;;;;;3.97;2.65;;;;;;;15.29;100.00;97148.41;5006649;28;20092;-54
2021/10/07 05:46:12;;;;;;;2.65;2.38;;;;;;;15.58;100.00;97139.25;5007260;28;21488;-55
2021/10/07 05:48:40;;;;;;;4.75;2.80;;;;;;;15.26;100.00;97146.06;5000919;28;20070;-51
2021/10/07 05:51:09;;;;;;;4.25;2.78;;;;;;;15.10;100.00;97149.44;5008574;28;20718;-52
2021/10/07 05:53:37;;;;;;;6.53;3.33;;;;;;;15.44;100.00;97144.16;5003308;28;20472;-54
2021/10/07 05:56:07;;;;;;;4.72;3.60;;;;;;;15.15;100.00;97151.66;5001274;28;20066;-54
2021/10/07 05:58:35;;;;;;;4.10;3.70;;;;;;;15.05;100.00;97145.59;5009009;28;20220;-52
2021/10/07 06:01:04;;;;;;;4.35;2.92;;;;;;;14.49;100.00;97152.94;5005409;28;20077;-49
2021/10/07 06:03:33;;;;;;;2.88;2.58;;;;;;;14.87;100.00;97154.44;5007674;28;20108;-54
2021/10/07 06:06:01;;;;;;;3.70;2.63;;;;;;;14.36;100.00;97163.91;5005887;28;20152;-52
2021/10/07 06:08:29;;;;;;;3.38;2.50;;;;;;;14.61;100.00;97161.50;5005297;28;20079;-50
2021/10/07 06:10:58;;;;;;;3.20;2.50;;;;;;;15.15;100.00;97155.13;5000734;28;21663;-61
2021/10/07 06:13:28;;;;;;;5.18;2.60;;;;;;;15.46;100.00;97149.34;5007467;28;20216;-53
2021/10/07 06:15:56;;;;;;;4.28;2.88;;;;;;;15.48;100.00;97152.66;5005318;28;20564;-54
2021/10/07 06:18:24;;;;;;;4.13;3.25;;;;;;;15.22;100.00;97157.16;5005958;28;20522;-56
2021/10/07 06:20:53;;;;;;;3.95;3.00;;;;;;;15.27;100.00;97160.19;5005159;28;20068;-52
2021/10/07 06:23:22;;;;;;;4.72;2.95;;;;;;;15.83;100.00;97162.34;5008454;28;20088;-50
2021/10/07 06:25:51;;;;;;;3.65;2.67;;;;;;;15.38;100.00;97165.22;5004896;28;20080;-51
2021/10/07 06:28:19;;;;;;;3.60;2.67;;;;;;;15.88;100.00;97169.84;5007955;28;20104;-54
2021/10/07 06:30:49;;;;;;;8.13;2.70;;;;;;;15.29;100.00;97172.31;5005259;28;20069;-51
2021/10/07 06:33:17;;;;;;;3.30;2.40;;;;;;;14.60;100.00;97186.41;4996485;28;20077;-55
2021/10/07 06:35:46;;;;;;;3.35;2.72;;;;;;;15.36;100.00;97180.50;5002231;28;20065;-56
2021/10/07 06:38:14;;;;;;;2.58;2.38;;;;;;;15.66;100.00;97181.88;5004221;28;20070;-56
2021/10/07 06:40:43;;;;;;;3.65;2.50;;;;;;;15.56;100.00;97170.50;5007650;28;20475;-54
2021/10/07 06:43:11;;;;;;;4.05;2.60;;;;;;;15.77;100.00;97160.31;5008106;28;20483;-55
2021/10/07 06:45:40;;;;;;;4.22;2.50;;;;;;;16.26;100.00;97175.59;5005945;28;20089;-55
2021/10/07 06:48:10;;;;;;;3.55;2.33;;;;;;;16.40;100.00;97187.44;5000257;28;20142;-55
2021/10/07 06:50:40;;;;;;;4.55;2.72;;;;;;;16.54;100.00;97189.47;5006914;28;20068;-55
2021/10/07 06:53:09;;;;;;;5.57;2.70;;;;;;;16.22;100.00;97190.25;5005506;28;20092;-55
2021/10/07 06:55:38;;;;;;;3.22;2.40;;;;;;;16.17;100.00;97196.03;5004032;28;20089;-56
2021/10/07 06:58:07;;;;;;;3.85;2.70;;;;;;;16.08;100.00;97191.69;5006889;28;20074;-56
2021/10/07 07:00:40;;;;;;;4.22;2.97;;;;;;;16.66;100.00;97190.84;5003852;28;20081;-58
2021/10/07 07:03:10;;;;;;;3.90;2.83;;;;;;;16.16;100.00;97196.19;5004987;28;20073;-56
2021/10/07 07:05:38;;;;;;;3.45;2.90;;;;;;;16.00;100.00;97199.63;5002359;28;20070;-56
2021/10/07 07:08:06;;;;;;;3.92;2.92;;;;;;;16.58;100.00;97199.63;5006398;28;20069;-56
2021/10/07 07:10:35;;;;;;;3.90;2.92;;;;;;;16.27;100.00;97201.22;5003425;28;20077;-54
2021/10/07 07:13:05;;;;;;;5.80;3.20;;;;;;;16.92;100.00;97197.88;5005973;28;20069;-58
2021/10/07 07:15:35;;;;;;;5.25;3.00;;;;;;;17.08;100.00;97208.53;5007776;28;20460;-55
2021/10/07 07:18:03;;;;;;;4.63;3.45;;;;;;;17.15;100.00;97206.84;4999142;28;20077;-54
2021/10/07 07:20:33;;;;;;;4.28;2.97;;;;;;;17.02;100.00;97211.84;5002719;28;20483;-51
2021/10/07 07:23:02;;;;;;;4.50;3.20;;;;;;;16.86;100.00;97207.34;4998978;28;20089;-57
2021/10/07 07:25:30;;;;;;;3.30;2.97;;;;;;;16.28;100.00;97218.88;5007561;28;20107;-58
2021/10/07 07:27:59;;;;;;;4.47;3.30;;;;;;;16.38;100.00;97212.41;5003535;28;20069;-56
2021/10/07 07:30:28;;;;;;;3.40;3.10;;;;;;;16.94;100.00;97220.69;4998769;28;20080;-56
2021/10/07 07:32:56;;;;;;;3.33;2.80;;;;;;;16.67;100.00;97221.78;5004554;28;20068;-57
2021/10/07 07:35:29;;;;;;;3.50;2.80;;;;;;;17.07;100.00;97210.38;5001215;28;20069;-52
2021/10/07 07:38:00;;;;;;;3.35;3.05;;;;;;;17.57;100.00;97208.47;5003210;28;20074;-54
2021/10/07 07:40:29;;;;;;;6.10;2.85;;;;;;;17.57;98.58;97216.47;5004914;28;20480;-55
2021/10/07 07:42:58;;;;;;;5.07;3.30;;;;;;;17.60;100.00;97212.63;5003688;28;20077;-58
2021/10/07 07:45:27;;;;;;;3.90;2.80;;;;;;;17.04;99.05;97223.19;5002078;28;20072;-57
2021/10/07 07:47:58;;;;;;;5.15;3.22;;;;;;;17.11;100.00;97220.69;4999377;28;20073;-59
2021/10/07 07:50:29;;;;;;;4.55;3.30;;;;;;;16.87;100.00;97229.50;5002649;28;20081;-56
2021/10/07 07:52:59;;;;;;;5.15;3.45;;;;;;;17.60;97.63;97223.31;5004120;28;20081;-56
2021/10/07 07:55:28;;;;;;;3.65;3.22;;;;;;;17.61;98.13;97228.47;5005863;28;20092;-58
2021/10/07 07:57:56;;;;;;;6.43;3.38;;;;;;;17.95;94.40;97236.25;4996923;28;20084;-54
2021/10/07 08:00:25;;;;;;;8.52;4.32;;;;;;;17.47;97.32;97237.97;5005396;28;20472;-55
2021/10/07 08:02:54;;;;;;;5.97;4.97;;;;;;;17.56;99.25;97236.97;5003977;28;20065;-56
2021/10/07 08:05:23;;;;;;;8.15;4.60;;;;;;;17.69;98.65;97232.97;5004870;28;20069;-56
2021/10/07 08:07:51;;;;;;;7.15;4.63;;;;;;;17.91;94.58;97250.94;5002558;28;20085;-46
2021/10/07 08:10:22;;;;;;;7.75;5.38;;;;;;;17.97;90.20;97249.44;5004076;28;20081;-51
2021/10/07 08:12:50;;;;;;;7.78;5.07;;;;;;;17.75;99.55;97249.09;5002328;28;20515;-55
2021/10/07 08:15:19;;;;;;;6.78;5.00;;;;;;;17.30;100.00;97263.00;4998600;28;20070;-52
2021/10/07 08:17:47;;;;;;;6.22;4.63;;;;;;;17.98;93.55;97251.09;4999406;28;20066;-49
2021/10/07 08:20:17;;;;;;;8.55;6.53;;;;;;;17.74;92.69;97251.94;4998190;28;20475;-56
2021/10/07 08:22:48;;;;;;;9.45;6.32;;;;;;;17.78;93.80;97255.97;4998574;28;20519;-54
2021/10/07 08:25:17;;;;;;;7.72;6.50;;;;;;;17.85;92.19;97253.44;5005534;28;20116;-50
2021/10/07 08:27:47;;;;;;;8.65;5.70;;;;;;;17.80;97.14;97253.97;4997222;28;20058;-58
2021/10/07 08:30:17;;;;;;;8.85;6.85;;;;;;;17.15;98.38;97270.00;5000508;28;20558;-53
2021/10/07 08:32:45;;;;;;;7.57;6.13;;;;;;;17.15;100.00;97268.16;5000273;28;20461;-57
2021/10/07 08:35:15;;;;;;;9.45;7.55;;;;;;;17.26;100.00;97267.00;5004141;28;20121;-55
2021/10/07 08:37:43;;;;;;;10.73;6.90;;;;;;;16.96;100.00;97271.13;5000306;28;20078;-57
2021/10/07 08:40:12;;;;;;;9.40;6.60;;;;;;;16.79;100.00;97264.94;5003677;28;21501;-52
2021/10/07 08:42:41;;;;;;;9.00;6.70;;;;;;;16.80;100.00;97272.78;5006337;28;20065;-48
2021/10/07 08:45:12;;;;;;;6.95;5.95;;;;;;;16.43;100.00;97274.97;5002042;28;20061;-52
2021/10/07 08:47:44;;;;;;;8.77;5.65;;;;;;;16.37;100.00;97271.13;5002814;28;20550;-55
2021/10/07 08:50:15;;;;;;;7.75;5.65;;;;;;;16.57;100.00;97277.03;5004895;28;20477;-54
2021/10/07 08:52:44;;;;;;;7.75;5.78;;;;;;;16.74;100.00;97267.25;5004534;28;20085;-54
2021/10/07 08:55:13;;;;;;;7.57;6.32;;;;;;;16.76;100.00;97270.63;5002391;28;20073;-56
2021/10/07 08:57:42;;;;;;;9.75;6.57;;;;;;;17.06;100.00;97277.97;5001005;28;20323;-50
2021/10/07 09:00:13;;;;;;;8.45;6.70;;;;;;;16.66;100.00;97276.06;5005564;28;20655;-53
2021/10/07 09:02:42;;;;;;;8.00;5.97;;;;;;;16.73;100.00;97273.59;5006535;28;20484;-55
2021/10/07 09:05:13;;;;;;;8.32;5.80;;;;;;;17.11;100.00;97263.34;5009786;28;20497;-53
2021/10/07 09:08:01;;;;;;;12.15;7.40;;;;;;;17.09;100.00;97277.66;5006856;28;20097;-52
2021/10/07 09:10:38;;;;;;;8.32;6.05;;;;;;;17.20;100.00;97273.00;5007451;28;20416;-53
2021/10/07 09:13:09;;;;;;;10.63;8.23;;;;;;;17.52;100.00;97273.00;5004727;28;20065;-54
2021/10/07 09:15:45;;;;;;;7.40;6.10;;;;;;;17.44;100.00;97272.97;5005096;28;20073;-59
2021/10/07 09:18:14;;;;;;;7.07;5.53;;;;;;;17.53;97.38;97274.66;5000533;28;20100;-55
2021/10/07 09:20:44;;;;;;;9.05;5.40;;;;;;;16.96;100.00;97271.97;5005366;28;20066;-53
2021/10/07 09:23:15;;;;;;;7.60;5.60;;;;;;;17.32;100.00;97279.66;5003206;28;20406;-53
2021/10/07 09:26:05;;;;;;;8.05;5.43;;;;;;;17.14;100.00;97271.00;5003549;28;20082;-60
2021/10/07 09:28:49;;;;;;;7.15;5.43;;;;;;;17.13;100.00;97274.66;5010291;28;20081;-56
2021/10/07 09:31:26;;;;;;;8.20;5.60;;;;;;;16.38;100.00;97263.00;5003671;28;20100;-57
2021/10/07 09:33:57;;;;;;;6.65;5.15;;;;;;;16.31;100.00;97266.44;5003742;28;20046;-52
2021/10/07 09:36:30;;;;;;;7.32;5.68;;;;;;;16.32;100.00;97271.63;5003928;28;20073;-51
2021/10/07 09:38:59;;;;;;;8.55;5.80;;;;;;;16.21;100.00;97276.38;5004730;28;20070;-49
2021/10/07 09:41:29;;;;;;;6.88;5.40;;;;;;;15.95;100.00;97271.94;5006247;28;20085;-49
2021/10/07 09:43:59;;;;;;;7.55;5.70;;;;;;;16.40;100.00;97270.81;5002809;28;20073;-48
2021/10/07 09:46:46;;;;;;;8.13;5.55;;;;;;;16.19;100.00;97284.53;5005234;28;20176;-54
2021/10/07 09:49:16;;;;;;;7.55;5.00;;;;;;;16.41;100.00;97263.66;5003015;28;20521;-53
2021/10/07 09:51:47;;;;;;;7.03;5.43;;;;;;;16.49;100.00;97269.84;5007933;28;20092;-52
2021/10/07 09:54:19;;;;;;;6.95;5.40;;;;;;;16.88;100.00;97271.13;5005570;28;20061;-56
2021/10/07 09:56:55;;;;;;;6.50;5.47;;;;;;;16.78;100.00;97271.28;5008623;28;20085;-53
2021/10/07 09:59:25;;;;;;;7.72;5.85;;;;;;;17.85;100.00;97259.63;4998690;28;20074;-59
2021/10/07 10:01:56;;;;;;;6.90;5.25;;;;;;;18.03;100.00;97264.72;5004478;28;20088;-55
2021/10/07 10:04:26;;;;;;;9.05;5.30;;;;;;;17.96;99.46;97263.75;5008215;28;20072;-55
2021/10/07 10:06:55;;;;;;;7.63;5.03;;;;;;;18.38;88.64;97259.94;5008242;28;20073;-56
2021/10/07 10:09:24;;;;;;;6.22;4.40;;;;;;;18.08;89.15;97270.41;5006980;28;20080;-58
2021/10/07 10:11:52;;;;;;;6.90;4.88;;;;;;;18.15;89.10;97259.88;5007004;28;20076;-55
2021/10/07 10:14:22;;;;;;;5.63;4.55;;;;;;;18.10;94.70;97259.53;5001716;28;20073;-55
2021/10/07 10:16:52;;;;;;;8.43;5.60;;;;;;;18.50;84.34;97259.38;5003715;28;20381;-53
2021/10/07 10:19:22;;;;;;;;;;;;;;;17.61;97.67;97263.13;5009799;28;20073;-57
2021/10/07 10:21:54;;;;;;;9.13;5.55;;;;;;;17.82;92.55;97259.94;5005835;28;20347;-56
2021/10/07 10:24:22;;;;;;;11.05;5.47;;;;;;;18.80;81.18;97256.91;5001982;28;20069;-56
2021/10/07 10:27:00;;;;;;;8.10;5.35;;;;;;;18.96;81.41;97255.97;5006963;28;20080;-58
2021/10/07 10:29:30;;;;;;;7.47;5.20;;;;;;;19.13;82.68;97262.00;5004254;28;20138;-58
2021/10/07 10:31:59;;;;;;;7.65;4.75;;;;;;;18.56;81.87;97263.19;5004086;28;20804;-55
2021/10/07 10:34:38;;;;;;;5.85;4.57;;;;;;;18.94;80.25;97260.66;5007276;28;20077;-59
2021/10/07 10:37:07;;;;;;;6.88;4.78;;;;;;;19.16;74.36;97256.31;5007544;28;20460;-54
2021/10/07 10:39:37;;;;;;;7.63;4.53;;;;;;;19.23;75.44;97256.44;5006702;28;20130;-57
2021/10/07 10:42:07;;;;;;;7.30;4.93;;;;;;;18.80;79.33;97258.75;4998116;28;20058;-57
2021/10/07 10:44:48;;;;;;;5.60;4.57;;;;;;;19.23;73.57;97261.78;5002089;28;20073;-55
2021/10/07 10:47:23;;;;;;;6.90;5.07;;;;;;;18.69;80.37;97263.47;5004603;28;20457;-57
2021/10/07 10:50:15;;;;;;;5.32;4.75;;;;;;;19.33;72.29;97265.03;5003747;28;20135;-54
2021/10/07 10:52:46;;;;;;;8.52;4.70;;;;;;;18.51;79.77;97265.53;5004788;28;20065;-54
2021/10/07 10:55:17;;;;;;;8.10;4.53;;;;;;;19.17;73.65;97274.03;5001378;28;20830;-54
2021/10/07 10:57:52;;;;;;;6.20;4.50;;;;;;;19.35;74.49;97268.38;5003934;28;20073;-55
2021/10/07 11:00:25;;;;;;;9.07;5.05;;;;;;;19.56;70.07;97271.19;5002377;28;20077;-51
2021/10/07 11:02:55;;;;;;;6.60;5.03;;;;;;;18.02;86.44;97273.75;4999890;28;20448;-55
2021/10/07 11:05:27;;;;;;;6.40;4.80;;;;;;;19.03;81.08;97266.75;5004872;28;20070;-54
2021/10/07 11:08:18;;;;;;;5.60;5.00;;;;;;;20.14;70.21;97260.75;5006365;28;20476;-51
2021/10/07 11:11:06;;;;;;;5.65;4.82;;;;;;;19.44;70.21;97272.63;5002869;28;20076;-54
2021/10/07 11:13:36;;;;;;;6.65;5.10;;;;;;;19.87;69.69;97257.69;5004888;28;20073;-53
2021/10/07 11:16:13;;;;;;;6.68;5.10;;;;;;;19.36;70.32;97268.19;4997602;28;20124;-54
2021/10/07 11:18:43;;;;;;;6.88;4.63;;;;;;;19.86;69.92;97255.22;5006105;28;20073;-52
2021/10/07 11:21:16;;;;;;;5.50;4.45;;;;;;;19.24;73.31;97264.28;5002276;28;20074;-53
2021/10/07 11:23:46;;;;;;;5.93;4.53;;;;;;;19.53;70.10;97255.50;4995191;28;20756;-51
2021/10/07 11:26:15;;;;;;;5.13;3.92;;;;;;;19.29;71.27;97250.38;5006277;28;20078;-53
2021/10/07 11:28:45;;;;;;;5.90;4.00;;;;;;;19.21;69.93;97252.09;5003781;28;20463;-53
2021/10/07 11:31:16;;;;;;;6.50;4.13;;;;;;;18.93;74.24;97250.97;5001456;28;20068;-55
2021/10/07 11:33:49;;;;;;;7.05;3.85;;;;;;;18.98;74.51;97253.94;5001642;28;20069;-53
2021/10/07 11:36:20;;;;;;;6.25;3.85;;;;;;;19.48;68.68;97254.38;5004580;28;20073;-58
2021/10/07 11:38:50;;;;;;;6.63;3.72;;;;;;;19.43;68.42;97246.91;5003228;28;20111;-54
2021/10/07 11:41:22;;;;;;;5.30;3.72;;;;;;;18.85;73.53;97243.84;4998561;28;20464;-52
2021/10/07 11:43:51;;;;;;;7.35;4.10;;;;;;;18.34;83.26;97247.94;4998830;28;20069;-59